createdAt,value
2022-08-26T00:04:44.105Z,19.03
2022-08-26T00:09:49.972Z,18.96
2022-08-26T00:14:54.918Z,18.94
2022-08-26T00:20:01.081Z,18.88
2022-08-26T00:25:06.030Z,18.85
2022-08-26T00:30:14.335Z,18.68
2022-08-26T00:35:21.140Z,18.69
2022-08-26T00:40:31.415Z,18.78
2022-08-26T00:45:44.163Z,19.05
2022-08-26T00:50:54.155Z,18.98
2022-08-26T00:56:02.901Z,19.24
2022-08-26T01:01:07.179Z,19.13
2022-08-26T01:06:13.407Z,18.68
2022-08-26T01:11:17.834Z,18.67
2022-08-26T01:16:24.988Z,18.53
2022-08-26T01:21:40.723Z,18.41
2022-08-26T01:26:46.840Z,18.37
2022-08-26T01:31:57.132Z,18.29
2022-08-26T01:37:07.090Z,18.20
2022-08-26T01:42:17.303Z,18.37
2022-08-26T01:47:25.838Z,18.24
2022-08-26T01:52:33.022Z,18.23
2022-08-26T01:57:39.557Z,18.25
2022-08-26T02:02:45.149Z,18.21
2022-08-26T02:07:51.027Z,18.23
2022-08-26T02:12:56.575Z,18.26
2022-08-26T02:18:02.523Z,18.23
2022-08-26T02:23:09.702Z,18.17
2022-08-26T02:28:17.432Z,18.22
2022-08-26T02:33:24.035Z,18.16
2022-08-26T02:38:29.570Z,18.08
2022-08-26T02:43:35.016Z,18.06
2022-08-26T02:48:39.197Z,18.15
2022-08-26T02:53:43.340Z,18.13
2022-08-26T02:58:48.839Z,18.02
2022-08-26T03:03:52.866Z,17.97
2022-08-26T03:08:57.006Z,17.93
2022-08-26T03:14:04.314Z,18.27
2022-08-26T03:19:09.854Z,18.00
2022-08-26T03:24:14.572Z,17.76
2022-08-26T03:29:37.346Z,17.66
2022-08-26T03:34:43.041Z,17.48
2022-08-26T03:39:47.307Z,17.48
2022-08-26T03:44:52.721Z,17.62
2022-08-26T03:49:59.285Z,17.52
2022-08-26T03:55:03.624Z,17.44
2022-08-26T04:00:13.862Z,17.39
2022-08-26T04:05:21.844Z,17.36
2022-08-26T04:10:29.237Z,17.46
2022-08-26T04:15:35.072Z,17.43
2022-08-26T04:20:39.363Z,17.43
2022-08-26T04:25:43.402Z,17.54
2022-08-26T04:30:49.601Z,17.56
2022-08-26T04:36:01.483Z,17.73
2022-08-26T04:41:15.661Z,17.73
2022-08-26T04:46:24.756Z,17.74
2022-08-26T04:51:28.985Z,17.77
2022-08-26T04:56:36.644Z,17.66
2022-08-26T05:01:45.868Z,17.88
2022-08-26T05:06:51.100Z,17.78
2022-08-26T05:11:56.280Z,17.76
2022-08-26T05:17:01.941Z,17.84
2022-08-26T05:22:06.734Z,17.92
2022-08-26T05:27:12.050Z,17.97
2022-08-26T05:32:18.226Z,17.96
2022-08-26T05:37:22.639Z,17.88
2022-08-26T05:42:26.817Z,17.98
2022-08-26T05:47:32.291Z,18.04
2022-08-26T05:52:36.514Z,18.24
2022-08-26T05:57:40.595Z,18.55
2022-08-26T06:02:48.794Z,18.87
2022-08-26T06:08:10.131Z,19.16
2022-08-26T06:13:14.472Z,19.83
2022-08-26T06:18:23.251Z,19.82
2022-08-26T06:23:46.978Z,20.16
2022-08-26T06:28:51.811Z,20.17
2022-08-26T06:33:58.435Z,20.07
2022-08-26T06:39:06.719Z,20.36
2022-08-26T06:44:10.838Z,20.56
2022-08-26T06:49:17.238Z,20.57
2022-08-26T06:54:21.636Z,20.41
2022-08-26T06:59:26.470Z,20.47
2022-08-26T07:04:33.535Z,20.41
2022-08-26T07:09:37.629Z,20.64
2022-08-26T07:14:47.545Z,20.90
2022-08-26T07:19:53.974Z,21.25
2022-08-26T07:24:58.039Z,21.66
2022-08-26T07:30:02.340Z,21.40
2022-08-26T07:35:09.169Z,21.49
2022-08-26T07:40:13.343Z,21.51
2022-08-26T07:45:21.839Z,21.62
2022-08-26T07:50:49.320Z,21.42
2022-08-26T07:55:52.635Z,22.25
2022-08-26T08:00:56.863Z,22.43
2022-08-26T08:06:04.600Z,22.52
2022-08-26T08:11:10.552Z,22.56
2022-08-26T08:16:14.654Z,22.43
2022-08-26T08:21:22.092Z,22.30
2022-08-26T08:26:28.108Z,22.51
2022-08-26T08:37:01.362Z,22.31
2022-08-26T08:42:31.846Z,22.12
2022-08-26T08:47:38.834Z,22.31
2022-08-26T08:52:50.538Z,22.37
2022-08-26T08:58:04.128Z,22.80
2022-08-26T09:03:20.902Z,23.39
2022-08-26T09:08:29.578Z,23.38
2022-08-26T09:13:33.504Z,24.27
2022-08-26T09:19:04.733Z,25.63
2022-08-26T09:24:11.185Z,27.25
2022-08-26T09:29:24.773Z,25.46
2022-08-26T09:34:29.536Z,24.48
2022-08-26T09:39:40.361Z,24.15
2022-08-26T09:44:57.529Z,24.28
2022-08-26T09:50:09.588Z,24.81
2022-08-26T09:55:22.763Z,25.83
2022-08-26T10:00:31.482Z,25.43
2022-08-26T10:05:43.708Z,24.73
2022-08-26T10:10:53.221Z,24.80
2022-08-26T10:16:05.692Z,24.73
2022-08-26T10:21:14.460Z,24.14
2022-08-26T10:26:29.371Z,24.91
2022-08-26T10:31:40.351Z,25.58
2022-08-26T10:37:13.560Z,26.65
2022-08-26T10:42:24.256Z,28.65
2022-08-26T10:47:36.425Z,29.09
2022-08-26T10:52:54.156Z,28.31
2022-08-26T10:58:08.089Z,29.36
2022-08-26T11:03:29.740Z,29.71
2022-08-26T11:08:33.738Z,28.47
2022-08-26T11:14:04.470Z,27.07
2022-08-26T11:19:11.238Z,25.96
2022-08-26T11:24:41.681Z,26.22
2022-08-26T11:30:01.919Z,28.93
2022-08-26T11:35:11.323Z,27.64
2022-08-26T11:40:21.593Z,26.07
2022-08-26T11:45:37.630Z,26.35
2022-08-26T11:50:42.041Z,26.45
2022-08-26T11:55:47.272Z,27.78
2022-08-26T12:00:55.775Z,28.65
2022-08-26T12:05:59.833Z,28.43
2022-08-26T12:11:07.103Z,28.77
2022-08-26T12:16:12.511Z,29.85
2022-08-26T12:21:24.265Z,29.74
2022-08-26T12:26:31.158Z,30.15
2022-08-26T12:31:38.316Z,28.40
2022-08-26T12:36:46.766Z,27.12
2022-08-26T12:41:52.782Z,28.32
2022-08-26T12:47:05.349Z,28.19
2022-08-26T12:52:30.024Z,26.94
2022-08-26T12:57:36.320Z,27.55
2022-08-26T13:02:41.638Z,28.15
2022-08-26T13:07:45.737Z,27.66
2022-08-26T13:12:49.768Z,27.69
2022-08-26T13:17:55.057Z,27.77
2022-08-26T13:23:03.277Z,27.81
2022-08-26T13:28:07.280Z,27.37
2022-08-26T13:33:13.754Z,26.90
2022-08-26T13:38:33.111Z,26.84
2022-08-26T13:43:37.906Z,27.09
2022-08-26T13:48:44.828Z,26.92
2022-08-26T13:53:49.112Z,26.00
2022-08-26T13:58:53.018Z,26.08
2022-08-26T14:03:58.609Z,25.93
2022-08-26T14:09:02.791Z,26.14
2022-08-26T14:14:06.776Z,25.67
2022-08-26T14:19:12.382Z,25.54
2022-08-26T14:24:16.395Z,25.26
2022-08-26T14:29:20.391Z,25.23
2022-08-26T14:34:26.561Z,25.13
2022-08-26T14:39:30.563Z,25.27
2022-08-26T14:44:35.088Z,25.39
2022-08-26T14:49:40.586Z,25.14
2022-08-26T14:54:44.561Z,25.14
2022-08-26T14:59:50.512Z,24.81
2022-08-26T15:04:56.036Z,24.79
2022-08-26T15:09:59.966Z,24.67
2022-08-26T15:15:04.253Z,24.56
2022-08-26T15:20:10.601Z,24.41
2022-08-26T15:25:15.212Z,24.18
2022-08-26T15:30:19.509Z,24.15
2022-08-26T15:35:24.936Z,23.89
2022-08-26T15:40:28.903Z,23.69
2022-08-26T15:45:34.170Z,23.86
2022-08-26T15:50:51.474Z,23.79
2022-08-26T15:55:56.963Z,23.56
2022-08-26T16:01:01.721Z,23.32
2022-08-26T16:06:08.309Z,23.23
2022-08-26T16:11:13.881Z,22.87
2022-08-26T16:16:18.130Z,22.70
2022-08-26T16:21:25.642Z,22.27
2022-08-26T16:26:32.964Z,22.03
2022-08-26T16:31:38.530Z,21.86
2022-08-26T16:36:44.081Z,21.72
2022-08-26T16:41:48.059Z,21.48
2022-08-26T16:46:52.996Z,21.24
2022-08-26T16:52:05.117Z,21.00
2022-08-26T16:57:11.343Z,20.92
2022-08-26T17:02:15.637Z,20.71
2022-08-26T17:07:21.500Z,20.58
2022-08-26T17:12:25.623Z,20.61
2022-08-26T17:17:29.814Z,20.44
2022-08-26T17:22:35.182Z,20.44
2022-08-26T17:27:39.258Z,20.28
2022-08-26T17:32:43.507Z,20.03
2022-08-26T17:37:49.405Z,19.78
2022-08-26T17:42:53.551Z,19.80
2022-08-26T17:47:57.963Z,19.53
2022-08-26T17:53:03.300Z,19.62
2022-08-26T17:58:07.510Z,19.49
2022-08-26T18:03:11.608Z,19.26
2022-08-26T18:08:19.785Z,19.63
2022-08-26T18:13:23.743Z,19.30
2022-08-26T18:18:27.931Z,19.09
2022-08-26T18:23:35.545Z,19.26
2022-08-26T18:28:39.657Z,19.02
2022-08-26T18:33:44.238Z,19.04
2022-08-26T18:38:51.169Z,19.37
2022-08-26T18:43:55.995Z,19.10
2022-08-26T18:49:00.140Z,18.86
2022-08-26T18:54:09.893Z,18.83
2022-08-26T18:59:14.460Z,18.63
2022-08-26T19:04:18.926Z,18.47
2022-08-26T19:09:26.273Z,18.53
2022-08-26T19:14:31.181Z,18.33
2022-08-26T19:19:38.362Z,17.94
2022-08-26T19:24:43.672Z,18.13
2022-08-26T19:29:47.826Z,17.82
2022-08-26T19:34:52.169Z,17.74
2022-08-26T19:39:57.547Z,17.56
2022-08-26T19:45:24.395Z,17.37
2022-08-26T19:50:31.197Z,17.08
2022-08-26T19:55:36.639Z,17.10
2022-08-26T20:00:42.492Z,16.96
2022-08-26T20:05:47.473Z,17.03
2022-08-26T20:10:54.059Z,16.93
2022-08-26T20:15:58.078Z,16.62
2022-08-26T20:21:19.679Z,16.67
2022-08-26T20:26:25.199Z,16.65
2022-08-26T20:31:29.705Z,16.73
2022-08-26T20:36:34.286Z,16.57
2022-08-26T20:41:40.383Z,16.45
2022-08-26T20:46:44.728Z,16.54
2022-08-26T20:51:51.456Z,16.44
2022-08-26T20:56:57.553Z,16.42
2022-08-26T21:02:01.536Z,16.35
2022-08-26T21:07:05.554Z,16.34
2022-08-26T21:12:11.430Z,16.17
2022-08-26T21:17:15.462Z,16.21
2022-08-26T21:22:19.578Z,16.32
2022-08-26T21:27:26.625Z,15.95
2022-08-26T21:32:32.623Z,16.11
2022-08-26T21:37:36.611Z,15.90
2022-08-26T21:42:42.284Z,16.03
2022-08-26T21:47:46.755Z,16.06
2022-08-26T21:52:50.717Z,16.00
2022-08-26T21:57:56.127Z,16.08
2022-08-26T22:03:00.942Z,15.68
2022-08-26T22:08:05.392Z,15.82
2022-08-26T22:13:11.485Z,15.79
2022-08-26T22:18:21.251Z,15.76
2022-08-26T22:23:25.582Z,15.69
2022-08-26T22:28:31.833Z,15.54
2022-08-26T22:33:35.952Z,15.52
2022-08-26T22:38:39.858Z,15.58
2022-08-26T22:43:46.044Z,15.41
2022-08-26T22:48:53.926Z,15.43
2022-08-26T22:53:58.175Z,15.60
2022-08-26T22:59:04.162Z,15.56
2022-08-26T23:04:08.969Z,15.80
2022-08-26T23:09:13.215Z,15.79
2022-08-26T23:14:19.909Z,15.71
2022-08-26T23:19:24.196Z,15.93
2022-08-26T23:24:28.427Z,15.79
2022-08-26T23:29:35.747Z,15.65
2022-08-26T23:34:58.988Z,15.69
2022-08-26T23:40:04.984Z,15.48
2022-08-26T23:45:13.275Z,15.37
2022-08-26T23:50:17.843Z,15.18
2022-08-26T23:55:23.500Z,15.31
